createdAt,value
2022-12-25T00:01:21.648Z,28.25
2022-12-25T00:03:48.964Z,25.92
2022-12-25T00:06:15.689Z,26.52
2022-12-25T00:08:42.619Z,26.30
2022-12-25T00:11:14.112Z,26.45
2022-12-25T00:13:41.349Z,23.42
2022-12-25T00:16:18.738Z,26.52
2022-12-25T00:18:46.060Z,27.15
2022-12-25T00:21:13.275Z,29.40
2022-12-25T00:23:40.236Z,25.42
2022-12-25T00:26:10.252Z,25.40
2022-12-25T00:28:37.235Z,26.42
2022-12-25T00:31:13.599Z,25.38
2022-12-25T00:33:44.031Z,26.05
2022-12-25T00:36:11.996Z,24.90
2022-12-25T00:38:40.379Z,25.50
2022-12-25T00:41:15.853Z,23.83
2022-12-25T00:43:42.483Z,22.98
2022-12-25T00:46:11.090Z,21.50
2022-12-25T00:48:38.503Z,23.85
2022-12-25T00:51:07.521Z,23.73
2022-12-25T00:53:34.099Z,22.13
2022-12-25T00:56:03.936Z,24.23
2022-12-25T00:58:32.330Z,20.77
2022-12-25T01:00:59.091Z,23.15
2022-12-25T01:03:26.642Z,23.40
2022-12-25T01:06:01.771Z,22.65
2022-12-25T01:08:30.760Z,21.52
2022-12-25T01:11:00.448Z,21.05
2022-12-25T01:13:28.452Z,23.13
2022-12-25T01:15:55.130Z,26.73
2022-12-25T01:18:23.608Z,23.90
2022-12-25T01:20:50.995Z,24.05
2022-12-25T01:23:17.717Z,23.27
2022-12-25T01:25:45.575Z,26.60
2022-12-25T01:28:12.199Z,25.95
2022-12-25T01:30:40.428Z,27.90
2022-12-25T01:33:07.099Z,26.35
2022-12-25T01:35:33.678Z,25.30
2022-12-25T01:38:00.330Z,28.10
2022-12-25T01:40:27.196Z,28.30
2022-12-25T01:42:53.781Z,29.25
2022-12-25T01:45:34.639Z,29.45
2022-12-25T01:48:05.058Z,33.53
2022-12-25T01:50:32.790Z,35.95
2022-12-25T01:52:59.496Z,38.45
2022-12-25T01:55:27.865Z,36.85
2022-12-25T01:57:54.881Z,37.83
2022-12-25T02:00:21.543Z,36.50
2022-12-25T02:02:49.027Z,30.70
2022-12-25T02:05:30.582Z,36.75
2022-12-25T02:08:02.607Z,29.00
2022-12-25T02:10:29.201Z,35.42
2022-12-25T02:12:56.139Z,25.75
2022-12-25T02:15:30.009Z,25.38
2022-12-25T02:18:09.364Z,29.20
2022-12-25T02:21:09.110Z,25.17
2022-12-25T02:24:08.438Z,27.92
2022-12-25T02:26:56.927Z,26.45
2022-12-25T02:29:44.924Z,23.13
2022-12-25T02:32:40.727Z,25.88
2022-12-25T02:35:39.564Z,23.05
2022-12-25T02:38:33.517Z,22.05
2022-12-25T02:41:06.957Z,21.95
2022-12-25T02:43:57.646Z,23.67
2022-12-25T02:46:43.380Z,23.88
2022-12-25T02:49:35.682Z,24.73
2022-12-25T02:52:29.001Z,22.08
2022-12-25T02:55:20.338Z,22.08
2022-12-25T02:58:10.573Z,20.27
2022-12-25T03:01:01.487Z,23.30
2022-12-25T03:03:51.738Z,22.55
2022-12-25T03:06:39.230Z,21.60
2022-12-25T03:09:27.355Z,22.98
2022-12-25T03:12:15.601Z,21.85
2022-12-25T03:15:00.740Z,23.55
2022-12-25T03:17:27.403Z,22.10
2022-12-25T03:20:12.739Z,19.52
2022-12-25T03:23:01.138Z,19.98
2022-12-25T03:25:47.354Z,19.75
2022-12-25T03:28:14.398Z,24.02
2022-12-25T03:31:20.191Z,24.30
2022-12-25T03:34:22.449Z,23.20
2022-12-25T03:37:32.448Z,27.23
2022-12-25T03:40:58.625Z,22.98
2022-12-25T03:43:59.148Z,26.02
2022-12-25T03:46:51.444Z,23.45
2022-12-25T03:49:58.061Z,22.30
2022-12-25T03:52:46.980Z,23.15
2022-12-25T03:55:34.489Z,20.30
2022-12-25T03:58:19.734Z,21.13
2022-12-25T04:01:04.582Z,22.90
2022-12-25T04:03:49.882Z,23.65
2022-12-25T04:06:34.987Z,22.55
2022-12-25T04:09:20.078Z,21.95
2022-12-25T04:12:05.581Z,23.38
2022-12-25T04:14:50.795Z,26.17
2022-12-25T04:17:35.999Z,23.05
2022-12-25T04:20:20.850Z,21.45
2022-12-25T04:23:06.137Z,24.90
2022-12-25T04:25:51.152Z,21.15
2022-12-25T04:28:36.024Z,20.10
2022-12-25T04:31:21.249Z,21.38
2022-12-25T04:34:06.306Z,18.98
2022-12-25T04:36:32.953Z,21.33
2022-12-25T04:38:59.501Z,21.23
2022-12-25T04:41:26.127Z,18.88
2022-12-25T04:43:52.674Z,20.27
2022-12-25T04:46:19.391Z,22.00
2022-12-25T04:48:46.123Z,21.70
2022-12-25T04:51:18.235Z,19.55
2022-12-25T04:53:46.052Z,20.07
2022-12-25T04:56:13.453Z,21.60
2022-12-25T04:58:40.323Z,20.42
2022-12-25T05:01:07.176Z,20.92
2022-12-25T05:03:34.249Z,20.23
2022-12-25T05:06:01.877Z,17.27
2022-12-25T05:08:29.975Z,18.83
2022-12-25T05:10:56.554Z,21.17
2022-12-25T05:13:23.648Z,16.55
2022-12-25T05:15:51.261Z,18.52
2022-12-25T05:18:18.062Z,17.42
2022-12-25T05:20:51.853Z,19.17
2022-12-25T05:23:18.468Z,15.45
2022-12-25T05:25:45.032Z,15.40
2022-12-25T05:28:11.601Z,16.63
2022-12-25T05:30:38.275Z,16.63
2022-12-25T05:33:05.057Z,16.85
2022-12-25T05:35:31.700Z,14.30
2022-12-25T05:37:58.597Z,16.42
2022-12-25T05:40:25.193Z,17.92
2022-12-25T05:42:51.764Z,14.52
2022-12-25T05:45:18.426Z,15.88
2022-12-25T05:47:45.050Z,15.20
2022-12-25T05:50:11.627Z,15.90
2022-12-25T05:52:38.332Z,16.13
2022-12-25T05:55:05.646Z,17.92
2022-12-25T05:57:33.025Z,15.50
2022-12-25T05:59:59.629Z,15.60
2022-12-25T06:02:26.628Z,15.20
2022-12-25T06:04:53.374Z,17.08
2022-12-25T06:07:20.009Z,15.55
2022-12-25T06:09:46.600Z,17.08
2022-12-25T06:12:13.296Z,16.70
2022-12-25T06:14:39.866Z,13.57
2022-12-25T06:17:06.463Z,14.55
2022-12-25T06:19:33.048Z,17.02
2022-12-25T06:21:59.677Z,13.85
2022-12-25T06:24:26.612Z,14.02
2022-12-25T06:26:53.264Z,13.07
2022-12-25T06:29:19.885Z,14.77
2022-12-25T06:31:46.506Z,13.82
2022-12-25T06:34:16.417Z,12.75
2022-12-25T06:36:43.338Z,15.30
2022-12-25T06:39:10.168Z,16.50
2022-12-25T06:41:36.878Z,18.08
2022-12-25T06:44:03.524Z,15.30
2022-12-25T06:46:30.962Z,13.35
2022-12-25T06:48:58.631Z,14.02
2022-12-25T06:51:28.243Z,14.70
2022-12-25T06:53:55.718Z,12.95
2022-12-25T06:56:24.928Z,14.55
2022-12-25T06:58:54.156Z,13.68
2022-12-25T07:01:36.358Z,16.15
2022-12-25T07:04:06.084Z,12.93
2022-12-25T07:06:32.902Z,17.67
2022-12-25T07:08:59.519Z,18.60
2022-12-25T07:11:26.346Z,14.63
2022-12-25T07:13:52.921Z,18.23
2022-12-25T07:16:20.194Z,15.15
2022-12-25T07:18:46.966Z,16.80
2022-12-25T07:21:17.063Z,17.27
2022-12-25T07:23:45.202Z,16.60
2022-12-25T07:26:13.166Z,18.70
2022-12-25T07:28:40.189Z,19.95
2022-12-25T07:31:10.875Z,17.45
2022-12-25T07:33:37.507Z,15.25
2022-12-25T07:36:05.539Z,18.35
2022-12-25T07:38:32.554Z,19.60
2022-12-25T07:40:59.367Z,17.38
2022-12-25T07:43:26.494Z,18.30
2022-12-25T07:46:00.582Z,19.70
2022-12-25T07:48:27.932Z,20.33
2022-12-25T07:50:59.608Z,21.48
2022-12-25T07:53:26.699Z,21.25
2022-12-25T07:56:04.751Z,23.40
2022-12-25T07:58:31.626Z,23.70
2022-12-25T08:01:11.727Z,22.35
2022-12-25T08:03:38.678Z,22.67
2022-12-25T08:06:07.808Z,21.30
2022-12-25T08:08:36.062Z,29.13
2022-12-25T08:11:03.389Z,38.45
2022-12-25T08:13:31.917Z,42.33
2022-12-25T08:16:00.221Z,44.40
2022-12-25T08:18:30.327Z,43.70
2022-12-25T08:21:02.727Z,44.92
2022-12-25T08:23:29.614Z,43.85
2022-12-25T08:26:05.450Z,43.67
2022-12-25T08:28:34.123Z,45.60
2022-12-25T08:31:10.565Z,30.10
2022-12-25T08:33:37.820Z,28.92
2022-12-25T08:36:06.729Z,23.70
2022-12-25T08:38:33.474Z,22.77
2022-12-25T08:41:00.368Z,23.92
2022-12-25T08:43:27.064Z,22.38
2022-12-25T08:45:53.675Z,23.30
2022-12-25T08:48:20.518Z,23.15
2022-12-25T08:50:51.741Z,24.08
2022-12-25T08:53:19.349Z,22.33
2022-12-25T08:55:46.074Z,21.77
2022-12-25T08:58:14.610Z,22.50
2022-12-25T09:00:41.464Z,21.35
2022-12-25T09:03:08.389Z,22.40
2022-12-25T09:05:36.040Z,16.92
2022-12-25T09:08:02.618Z,17.83
2022-12-25T09:10:29.610Z,20.88
2022-12-25T09:12:56.262Z,19.02
2022-12-25T09:15:22.854Z,17.67
2022-12-25T09:17:49.529Z,16.15
2022-12-25T09:20:16.168Z,17.60
2022-12-25T09:22:42.822Z,14.73
2022-12-25T09:25:09.901Z,18.30
2022-12-25T09:27:36.493Z,16.05
2022-12-25T09:30:04.057Z,15.50
2022-12-25T09:32:30.707Z,12.90
2022-12-25T09:34:57.286Z,15.27
2022-12-25T09:37:23.888Z,13.10
2022-12-25T09:39:50.463Z,14.93
2022-12-25T09:42:22.470Z,14.23
2022-12-25T09:44:57.747Z,12.38
2022-12-25T09:47:29.543Z,14.90
2022-12-25T09:49:58.868Z,19.03
2022-12-25T09:52:35.574Z,16.67
2022-12-25T09:55:08.427Z,13.38
2022-12-25T09:57:35.001Z,13.38
2022-12-25T10:00:01.629Z,12.15
2022-12-25T10:02:36.925Z,12.13
2022-12-25T10:07:54.674Z,12.38
2022-12-25T10:10:59.636Z,10.48
2022-12-25T10:13:47.769Z,10.05
2022-12-25T10:16:39.374Z,9.63
2022-12-25T10:19:18.990Z,9.15
2022-12-25T10:21:47.271Z,9.98
2022-12-25T10:24:38.518Z,8.70
2022-12-25T10:27:26.382Z,8.43
2022-12-25T10:29:56.860Z,11.52
2022-12-25T10:32:23.513Z,10.15
2022-12-25T10:34:50.702Z,10.55
2022-12-25T10:37:17.473Z,9.80
2022-12-25T10:39:46.981Z,9.77
2022-12-25T10:42:43.786Z,9.90
2022-12-25T10:45:10.631Z,8.32
2022-12-25T10:47:42.496Z,6.70
2022-12-25T10:50:23.022Z,10.95
2022-12-25T10:53:05.208Z,6.38
2022-12-25T10:55:33.016Z,8.35
2022-12-25T10:58:01.940Z,7.28
2022-12-25T11:00:32.116Z,9.88
2022-12-25T11:02:59.655Z,13.02
2022-12-25T11:05:30.108Z,9.52
2022-12-25T11:08:00.072Z,9.18
2022-12-25T11:10:36.532Z,9.45
2022-12-25T11:13:07.529Z,9.40
2022-12-25T11:15:48.516Z,7.93
2022-12-25T11:18:26.821Z,9.75
2022-12-25T11:20:58.960Z,6.72
2022-12-25T11:23:28.339Z,9.55
2022-12-25T11:25:56.257Z,10.63
2022-12-25T11:28:24.169Z,11.40
2022-12-25T11:30:57.925Z,11.82
2022-12-25T11:33:35.116Z,12.38
2022-12-25T11:36:08.952Z,10.55
2022-12-25T11:38:35.593Z,10.55
2022-12-25T11:41:04.471Z,9.40
2022-12-25T11:43:40.396Z,8.82
2022-12-25T11:46:29.059Z,7.00
2022-12-25T11:49:05.439Z,11.23
2022-12-25T11:51:40.849Z,7.22
2022-12-25T11:54:10.412Z,9.52
2022-12-25T11:56:37.884Z,11.07
2022-12-25T11:59:18.379Z,9.77
2022-12-25T12:01:50.037Z,12.23
2022-12-25T12:04:29.626Z,13.13
2022-12-25T12:07:13.287Z,8.65
2022-12-25T12:10:00.527Z,8.60
2022-12-25T12:12:48.879Z,5.35
2022-12-25T12:15:35.866Z,9.32
2022-12-25T12:18:19.107Z,7.32
2022-12-25T12:20:57.189Z,7.45
2022-12-25T12:23:24.212Z,11.90
2022-12-25T12:25:51.788Z,4.57
2022-12-25T12:28:27.559Z,8.50
2022-12-25T12:31:00.944Z,6.72
2022-12-25T12:33:36.410Z,8.60
2022-12-25T12:36:05.411Z,5.35
2022-12-25T12:38:34.017Z,5.68
2022-12-25T12:41:02.884Z,7.53
2022-12-25T12:43:32.584Z,4.28
2022-12-25T12:46:30.062Z,6.65
2022-12-25T12:49:32.740Z,6.38
2022-12-25T12:52:27.236Z,6.13
2022-12-25T12:55:06.165Z,10.63
2022-12-25T12:57:39.598Z,4.70
2022-12-25T13:00:15.529Z,6.13
2022-12-25T13:03:17.600Z,6.88
2022-12-25T13:05:50.336Z,5.80
2022-12-25T13:08:26.329Z,5.18
2022-12-25T13:11:05.489Z,6.60
2022-12-25T13:13:39.942Z,6.45
2022-12-25T13:16:13.590Z,7.85
2022-12-25T13:18:40.264Z,6.43
2022-12-25T13:21:07.490Z,6.68
2022-12-25T13:23:39.056Z,7.15
2022-12-25T13:26:17.526Z,15.57
2022-12-25T13:28:46.332Z,7.63
2022-12-25T13:31:12.860Z,5.90
2022-12-25T13:33:41.055Z,6.78
2022-12-25T13:36:13.341Z,5.60
2022-12-25T13:38:46.096Z,7.50
2022-12-25T13:41:37.345Z,10.93
2022-12-25T13:44:20.667Z,4.40
2022-12-25T13:46:48.255Z,5.53
2022-12-25T13:49:17.371Z,6.13
2022-12-25T13:51:44.184Z,6.13
2022-12-25T13:54:13.147Z,3.95
2022-12-25T13:56:52.004Z,4.47
2022-12-25T13:59:22.010Z,4.30
2022-12-25T14:01:50.307Z,5.22
2022-12-25T14:04:20.850Z,5.90
2022-12-25T14:06:48.240Z,5.55
2022-12-25T14:09:16.120Z,5.40
2022-12-25T14:11:48.767Z,4.63
2022-12-25T14:14:22.301Z,4.95
2022-12-25T14:16:50.833Z,4.90
2022-12-25T14:19:27.834Z,5.47
2022-12-25T14:22:19.769Z,4.88
2022-12-25T14:24:47.343Z,9.32
2022-12-25T14:27:23.878Z,6.82
2022-12-25T14:29:54.035Z,6.68
2022-12-25T14:32:23.978Z,6.38
2022-12-25T14:34:54.234Z,5.32
2022-12-25T14:37:23.914Z,7.30
2022-12-25T14:40:06.748Z,9.73
2022-12-25T14:42:37.173Z,6.50
2022-12-25T14:45:26.789Z,8.38
2022-12-25T14:47:56.233Z,6.90
2022-12-25T14:50:50.947Z,8.52
2022-12-25T14:53:21.533Z,8.63
2022-12-25T14:55:53.937Z,9.05
2022-12-25T14:58:23.574Z,9.00
2022-12-25T15:01:02.862Z,10.82
2022-12-25T15:03:40.358Z,12.10
2022-12-25T15:06:21.771Z,11.68
2022-12-25T15:09:03.048Z,11.82
2022-12-25T15:11:30.127Z,10.90
2022-12-25T15:13:56.707Z,10.90
2022-12-25T15:16:26.264Z,8.85
2022-12-25T15:18:53.694Z,8.07
2022-12-25T15:21:26.521Z,7.07
2022-12-25T15:23:57.955Z,8.43
2022-12-25T15:26:25.291Z,8.73
2022-12-25T15:28:52.015Z,8.63
2022-12-25T15:31:29.840Z,8.73
2022-12-25T15:33:58.605Z,8.35
2022-12-25T15:36:26.422Z,11.15
2022-12-25T15:38:54.020Z,15.90
2022-12-25T15:41:44.099Z,13.70
2022-12-25T15:44:12.089Z,19.42
2022-12-25T15:46:39.451Z,17.55
2022-12-25T15:49:06.073Z,16.17
2022-12-25T15:51:32.721Z,16.48
2022-12-25T15:53:59.660Z,12.23
2022-12-25T15:56:27.103Z,10.73
2022-12-25T15:58:53.723Z,13.38
2022-12-25T16:01:21.205Z,11.10
2022-12-25T16:03:47.921Z,12.60
2022-12-25T16:06:18.673Z,10.32
2022-12-25T16:08:45.774Z,11.93
2022-12-25T16:11:12.459Z,12.10
2022-12-25T16:13:39.141Z,10.95
2022-12-25T16:16:06.956Z,9.13
2022-12-25T16:18:33.855Z,10.10
2022-12-25T16:21:00.518Z,12.18
2022-12-25T16:23:27.233Z,10.23
2022-12-25T16:25:53.904Z,15.10
2022-12-25T16:28:20.528Z,11.20
2022-12-25T16:30:47.226Z,10.85
2022-12-25T16:33:13.861Z,10.82
2022-12-25T16:35:40.487Z,11.02
2022-12-25T16:38:07.132Z,13.15
2022-12-25T16:40:34.105Z,18.30
2022-12-25T16:43:00.771Z,14.63
2022-12-25T16:45:27.524Z,15.15
2022-12-25T16:47:54.107Z,16.30
2022-12-25T16:50:20.775Z,12.30
2022-12-25T16:52:47.338Z,12.90
2022-12-25T16:55:13.927Z,15.93
2022-12-25T16:57:40.515Z,14.35
2022-12-25T17:00:08.685Z,11.05
2022-12-25T17:02:35.456Z,15.05
2022-12-25T17:05:02.321Z,14.32
2022-12-25T17:07:28.886Z,11.40
2022-12-25T17:09:56.991Z,10.68
2022-12-25T17:12:23.613Z,12.93
2022-12-25T17:14:50.213Z,12.98
2022-12-25T17:17:16.792Z,14.15
2022-12-25T17:19:43.548Z,13.65
2022-12-25T17:22:10.599Z,27.10
2022-12-25T17:24:39.894Z,23.08
2022-12-25T17:27:08.620Z,18.40
2022-12-25T17:29:42.653Z,16.95
2022-12-25T17:32:10.726Z,16.10
2022-12-25T17:34:37.864Z,11.98
2022-12-25T17:37:06.480Z,11.40
2022-12-25T17:39:33.119Z,12.85
2022-12-25T17:41:59.750Z,13.95
2022-12-25T17:44:27.296Z,16.73
2022-12-25T17:46:53.986Z,15.60
2022-12-25T17:49:22.664Z,11.57
2022-12-25T17:51:49.286Z,11.75
2022-12-25T17:54:15.914Z,11.95
2022-12-25T17:56:42.547Z,11.88
2022-12-25T17:59:17.932Z,13.95
2022-12-25T18:01:45.848Z,11.38
2022-12-25T18:04:12.946Z,12.50
2022-12-25T18:06:39.601Z,9.40
2022-12-25T18:09:06.940Z,13.98
2022-12-25T18:11:33.621Z,12.60
2022-12-25T18:14:05.764Z,12.93
2022-12-25T18:16:37.094Z,9.63
2022-12-25T18:19:04.029Z,11.63
2022-12-25T18:21:30.963Z,11.38
2022-12-25T18:23:57.610Z,10.85
2022-12-25T18:26:25.924Z,15.75
2022-12-25T18:28:52.861Z,9.68
2022-12-25T18:31:21.957Z,13.02
2022-12-25T18:33:49.196Z,13.25
2022-12-25T18:36:20.249Z,13.20
2022-12-25T18:38:48.268Z,10.48
2022-12-25T18:41:15.018Z,11.65
2022-12-25T18:43:52.947Z,12.48
2022-12-25T18:46:26.676Z,10.32
2022-12-25T18:48:55.928Z,11.13
2022-12-25T18:51:22.767Z,12.43
2022-12-25T18:53:49.867Z,10.68
2022-12-25T18:56:18.140Z,11.25
2022-12-25T18:58:46.308Z,11.60
2022-12-25T19:01:21.575Z,9.85
2022-12-25T19:03:49.475Z,10.95
2022-12-25T19:06:22.142Z,14.23
2022-12-25T19:08:49.202Z,10.60
2022-12-25T19:11:16.417Z,12.55
2022-12-25T19:13:43.418Z,12.80
2022-12-25T19:16:10.677Z,10.57
2022-12-25T19:18:38.289Z,13.48
2022-12-25T19:21:07.266Z,10.65
2022-12-25T19:23:34.740Z,11.88
2022-12-25T19:26:04.070Z,12.13
2022-12-25T19:28:30.697Z,11.93
2022-12-25T19:31:00.769Z,11.95
2022-12-25T19:33:27.902Z,12.48
2022-12-25T19:35:59.415Z,14.48
2022-12-25T19:38:25.987Z,12.15
2022-12-25T19:41:01.939Z,12.40
2022-12-25T19:43:30.388Z,12.68
2022-12-25T19:45:59.505Z,11.88
2022-12-25T19:48:26.135Z,13.25
2022-12-25T19:50:52.997Z,14.80
2022-12-25T19:53:23.171Z,13.10
2022-12-25T19:55:53.729Z,17.95
2022-12-25T19:58:22.232Z,15.90
2022-12-25T20:01:05.866Z,14.88
2022-12-25T20:03:45.343Z,13.88
2022-12-25T20:06:21.856Z,13.75
2022-12-25T20:08:50.691Z,16.08
2022-12-25T20:11:17.564Z,15.10
2022-12-25T20:13:44.785Z,12.70
2022-12-25T20:16:11.983Z,12.98
2022-12-25T20:18:39.657Z,14.27
2022-12-25T20:21:17.907Z,19.17
2022-12-25T20:23:46.512Z,15.05
2022-12-25T20:26:14.948Z,14.05
2022-12-25T20:28:42.350Z,15.27
2022-12-25T20:31:13.997Z,14.05
2022-12-25T20:33:40.934Z,15.95
2022-12-25T20:36:08.078Z,21.58
2022-12-25T20:38:35.190Z,16.45
2022-12-25T20:43:52.739Z,22.35
2022-12-25T20:46:19.688Z,27.92
2022-12-25T20:48:46.409Z,31.13
2022-12-25T20:51:14.421Z,30.40
2022-12-25T20:53:41.837Z,31.23
2022-12-25T20:56:10.489Z,28.02
2022-12-25T20:58:37.850Z,35.15
2022-12-25T21:01:07.205Z,36.17
2022-12-25T21:03:34.966Z,31.88
2022-12-25T21:06:01.932Z,33.75
2022-12-25T21:08:29.492Z,35.10
2022-12-25T21:11:00.771Z,34.47
2022-12-25T21:13:30.775Z,33.78
2022-12-25T21:15:58.072Z,29.73
2022-12-25T21:18:26.656Z,27.10
2022-12-25T21:20:56.582Z,27.98
2022-12-25T21:23:23.660Z,23.08
2022-12-25T21:25:50.250Z,25.55
2022-12-25T21:28:17.008Z,25.48
2022-12-25T21:30:43.723Z,29.38
2022-12-25T21:33:31.179Z,26.45
2022-12-25T21:36:11.442Z,24.23
2022-12-25T21:38:38.868Z,25.80
2022-12-25T21:41:07.699Z,24.15
2022-12-25T21:43:35.345Z,25.70
2022-12-25T21:46:07.689Z,27.92
2022-12-25T21:48:36.473Z,24.83
2022-12-25T21:51:24.024Z,25.63
2022-12-25T21:53:51.209Z,28.13
2022-12-25T21:56:18.324Z,24.30
2022-12-25T21:58:44.932Z,27.17
2022-12-25T22:01:11.849Z,27.38
2022-12-25T22:03:38.612Z,26.73
2022-12-25T22:06:24.149Z,25.42
2022-12-25T22:08:50.767Z,22.10
2022-12-25T22:11:35.613Z,21.77
2022-12-25T22:14:20.823Z,25.75
2022-12-25T22:17:26.223Z,24.90
2022-12-25T22:19:52.936Z,23.73
2022-12-25T22:22:22.805Z,23.52
2022-12-25T22:24:51.291Z,23.33
2022-12-25T22:27:18.658Z,21.92
2022-12-25T22:29:45.399Z,21.20
2022-12-25T22:32:13.420Z,21.75
2022-12-25T22:34:40.112Z,21.17
2022-12-25T22:37:09.427Z,17.73
2022-12-25T22:39:36.236Z,21.40
2022-12-25T22:42:02.897Z,21.00
2022-12-25T22:44:31.156Z,23.98
2022-12-25T22:46:57.850Z,26.58
2022-12-25T22:49:25.755Z,26.52
2022-12-25T22:51:54.203Z,26.88
2022-12-25T22:54:22.160Z,26.02
2022-12-25T22:56:50.927Z,25.52
2022-12-25T22:59:20.332Z,25.75
2022-12-25T23:01:47.467Z,28.20
2022-12-25T23:04:14.183Z,34.67
2022-12-25T23:06:41.875Z,27.63
2022-12-25T23:09:09.129Z,27.80
2022-12-25T23:11:35.952Z,28.35
2022-12-25T23:14:21.809Z,26.33
2022-12-25T23:16:48.440Z,28.83
2022-12-25T23:19:33.640Z,31.83
2022-12-25T23:22:19.399Z,25.77
2022-12-25T23:25:04.218Z,31.75
2022-12-25T23:27:30.799Z,25.10
2022-12-25T23:29:57.360Z,27.35
2022-12-25T23:32:25.874Z,30.65
2022-12-25T23:34:52.808Z,27.65
2022-12-25T23:37:19.610Z,31.35
2022-12-25T23:39:46.776Z,30.30
2022-12-25T23:42:13.740Z,28.17
2022-12-25T23:44:40.315Z,30.55
2022-12-25T23:47:07.088Z,29.88
2022-12-25T23:49:33.760Z,30.30
2022-12-25T23:52:00.350Z,29.83
2022-12-25T23:54:29.750Z,27.95
2022-12-25T23:56:57.670Z,24.17
2022-12-25T23:59:28.568Z,28.70
